Time;durP1;ratioP1;P1;durP2;ratioP2;P2;SDS_P1;SDS_P2;PMS_P1;PMS_P2;Temp;Humidity;BMP_temperature;BMP_pressure;BME280_temperature;BME280_humidity;BME280_pressure;Samples;Min_cycle;Max_cycle;Signal;HPM_P1;HPM_P2
2022/09/13 00:00:30;;;;;;;23.92;20.58;;;17.60;99.90;;;;;;5052889;23;20058;-85
2022/09/13 00:02:56;;;;;;;23.20;20.70;;;17.50;99.90;;;;;;4988283;28;20046;-86
2022/09/13 00:05:22;;;;;;;23.05;20.55;;;17.50;99.90;;;;;;4990212;28;20042;-85
2022/09/13 00:07:48;;;;;;;22.23;19.83;;;17.50;99.90;;;;;;4988970;28;20429;-85
2022/09/13 00:10:14;;;;;;;20.77;18.55;;;17.50;99.90;;;;;;4987032;28;20082;-85
2022/09/13 00:12:40;;;;;;;23.13;18.75;;;17.50;99.90;;;;;;4989695;28;20042;-87
2022/09/13 00:15:06;;;;;;;21.42;19.05;;;17.50;99.90;;;;;;4986780;28;20043;-85
2022/09/13 00:17:32;;;;;;;22.85;20.13;;;17.40;99.90;;;;;;4987457;28;20046;-85
2022/09/13 00:19:57;;;;;;;21.77;19.42;;;17.40;99.90;;;;;;4971359;28;20042;-85
2022/09/13 00:22:23;;;;;;;23.55;20.50;;;17.50;99.90;;;;;;4989675;28;20038;-86
2022/09/13 00:24:48;;;;;;;22.70;19.63;;;17.40;99.90;;;;;;4987492;28;20391;-85
2022/09/13 00:27:14;;;;;;;22.45;20.05;;;17.40;99.90;;;;;;4985421;28;20041;-85
2022/09/13 00:29:39;;;;;;;23.40;20.73;;;17.40;99.90;;;;;;4974259;28;20073;-86
2022/09/13 00:32:05;;;;;;;21.67;19.38;;;17.40;99.90;;;;;;4984971;28;20035;-85
2022/09/13 00:34:30;;;;;;;23.80;20.58;;;17.40;99.90;;;;;;4983970;28;20457;-85
2022/09/13 00:36:56;;;;;;;22.42;20.02;;;17.40;99.90;;;;;;4978060;28;20117;-85
2022/09/13 00:39:22;;;;;;;24.13;20.35;;;17.50;99.90;;;;;;4985253;28;20034;-85
2022/09/13 00:41:47;;;;;;;23.55;21.02;;;17.50;99.90;;;;;;4986560;28;20062;-86
2022/09/13 00:44:48;;;;;;;21.95;19.48;;;17.50;99.90;;;;;;5004526;28;20465;-85
2022/09/13 00:47:25;;;;;;;21.98;19.77;;;17.50;99.90;;;;;;4977003;28;20046;-85
2022/09/13 00:49:55;;;;;;;24.92;21.30;;;17.50;99.90;;;;;;4982209;28;20037;-85
2022/09/13 00:52:24;;;;;;;25.25;22.08;;;17.50;99.90;;;;;;4989835;28;20431;-86
2022/09/13 00:54:55;;;;;;;22.90;19.40;;;17.50;99.90;;;;;;4987871;28;20035;-85
2022/09/13 00:57:23;;;;;;;23.95;20.88;;;17.50;99.90;;;;;;4987247;28;20069;-85
2022/09/13 01:00:06;;;;;;;23.75;21.23;;;17.50;99.90;;;;;;4987792;28;20058;-85
2022/09/13 01:02:32;;;;;;;23.40;20.90;;;17.50;99.90;;;;;;4988556;28;20046;-86
2022/09/13 01:04:57;;;;;;;23.58;21.17;;;17.50;99.90;;;;;;4987716;28;20051;-85
2022/09/13 01:07:23;;;;;;;23.88;21.30;;;17.50;99.90;;;;;;4989657;28;20049;-86
2022/09/13 01:09:50;;;;;;;23.88;21.30;;;17.50;99.90;;;;;;4990963;28;20482;-85
2022/09/13 01:12:38;;;;;;;22.02;19.65;;;17.50;99.90;;;;;;4992237;28;20454;-85
2022/09/13 01:15:05;;;;;;;25.60;22.10;;;17.50;99.90;;;;;;4984785;28;20402;-86
2022/09/13 01:17:32;;;;;;;23.95;21.35;;;17.50;99.90;;;;;;4991048;28;20105;-86
2022/09/13 01:20:00;;;;;;;24.52;21.98;;;17.50;99.90;;;;;;4991864;28;20073;-86
2022/09/13 01:23:16;;;;;;;25.45;22.75;;;17.50;99.90;;;;;;4991567;28;20050;-85
2022/09/13 01:26:18;;;;;;;24.02;21.48;;;17.40;99.90;;;;;;4934779;29;20040;-85
2022/09/13 01:29:13;;;;;;;25.55;22.83;;;17.50;99.90;;;;;;4941243;29;20495;-85
2022/09/13 01:31:56;;;;;;;26.25;22.38;;;17.40;99.90;;;;;;4945949;29;20047;-85
2022/09/13 01:34:55;;;;;;;26.27;23.48;;;17.40;99.90;;;;;;4947307;29;20043;-85
2022/09/13 01:37:49;;;;;;;26.80;22.98;;;17.40;99.90;;;;;;4945619;29;20587;-85
2022/09/13 01:40:37;;;;;;;29.30;23.60;;;17.30;99.90;;;;;;4941158;29;20055;-86
2022/09/13 01:43:26;;;;;;;27.08;23.48;;;17.30;99.90;;;;;;4950073;29;20046;-84
2022/09/13 01:46:04;;;;;;;27.88;22.73;;;17.30;99.90;;;;;;4947259;29;20051;-85
2022/09/13 01:48:34;;;;;;;25.92;23.15;;;17.30;99.90;;;;;;4937877;29;20102;-85
2022/09/13 01:51:06;;;;;;;26.45;23.10;;;17.30;99.90;;;;;;4944610;29;20352;-85
2022/09/13 01:54:05;;;;;;;27.45;23.85;;;17.30;99.90;;;;;;4949597;29;20460;-85
2022/09/13 01:56:39;;;;;;;27.98;23.20;;;17.30;99.90;;;;;;4941288;29;20126;-86
2022/09/13 01:59:19;;;;;;;29.02;24.70;;;17.30;99.90;;;;;;4939149;28;20046;-86
2022/09/13 02:02:01;;;;;;;29.23;24.75;;;17.30;99.90;;;;;;4991636;28;20073;-85
2022/09/13 02:04:35;;;;;;;27.73;24.55;;;17.20;99.90;;;;;;4992001;28;20089;-86
2022/09/13 02:07:03;;;;;;;30.42;25.45;;;17.20;99.90;;;;;;4990524;28;20041;-85
2022/09/13 02:09:33;;;;;;;29.27;25.38;;;17.20;99.90;;;;;;4980035;28;20125;-85
2022/09/13 02:12:06;;;;;;;29.80;24.98;;;17.20;99.90;;;;;;4981846;28;20063;-85
2022/09/13 02:14:39;;;;;;;31.30;26.00;;;17.20;99.90;;;;;;4990153;28;20380;-86
2022/09/13 02:17:13;;;;;;;38.30;28.83;;;17.20;99.90;;;;;;4992077;28;20077;-85
2022/09/13 02:19:50;;;;;;;33.92;27.20;;;17.20;99.90;;;;;;4978436;28;20088;-85
2022/09/13 02:22:19;;;;;;;35.45;28.98;;;17.20;99.90;;;;;;4991755;28;20118;-86
2022/09/13 02:24:50;;;;;;;33.47;29.15;;;17.20;99.90;;;;;;4990710;28;20098;-85
2022/09/13 02:27:19;;;;;;;34.45;28.45;;;17.20;99.90;;;;;;4983214;28;20085;-85
2022/09/13 02:29:49;;;;;;;35.58;29.00;;;17.20;99.90;;;;;;4974223;28;20406;-85
2022/09/13 02:32:37;;;;;;;35.28;28.08;;;17.20;99.90;;;;;;4976277;28;20046;-86
2022/09/13 02:35:12;;;;;;;38.00;29.42;;;17.20;99.90;;;;;;4984096;28;20089;-85
2022/09/13 02:37:41;;;;;;;41.65;30.63;;;17.20;99.90;;;;;;4984962;28;20105;-86
2022/09/13 02:40:14;;;;;;;38.72;30.02;;;17.30;99.90;;;;;;4973756;28;20038;-86
2022/09/13 02:42:46;;;;;;;39.88;30.38;;;17.20;99.90;;;;;;4991831;28;20114;-86
2022/09/13 02:45:13;;;;;;;40.00;30.05;;;17.30;99.90;;;;;;4988475;28;20070;-85
2022/09/13 02:47:47;;;;;;;37.80;30.67;;;17.20;99.90;;;;;;4990176;28;20546;-85
2022/09/13 02:50:43;;;;;;;38.42;30.65;;;17.30;99.90;;;;;;4990614;28;20049;-86
2022/09/13 02:53:16;;;;;;;38.47;29.52;;;17.30;99.90;;;;;;4990090;28;20399;-85
2022/09/13 02:55:48;;;;;;;40.85;30.35;;;17.30;99.90;;;;;;4991600;28;20090;-85
2022/09/13 02:58:33;;;;;;;36.10;29.20;;;17.20;99.90;;;;;;4990668;28;20113;-85
2022/09/13 03:01:00;;;;;;;37.97;29.58;;;17.30;99.90;;;;;;4990653;28;20501;-85
2022/09/13 03:03:25;;;;;;;36.67;29.60;;;17.30;99.90;;;;;;4991374;28;20182;-85
2022/09/13 03:05:52;;;;;;;36.20;28.13;;;17.30;99.90;;;;;;4986124;28;20121;-85
2022/09/13 03:08:18;;;;;;;39.10;30.38;;;17.30;99.90;;;;;;4977088;28;20042;-85
2022/09/13 03:11:08;;;;;;;35.75;28.73;;;17.30;99.90;;;;;;4980276;28;20045;-86
2022/09/13 03:13:54;;;;;;;36.13;30.08;;;17.30;99.90;;;;;;4990107;28;20042;-86
2022/09/13 03:16:31;;;;;;;34.17;29.23;;;17.30;99.90;;;;;;4956786;28;20086;-86
2022/09/13 03:19:11;;;;;;;37.63;30.50;;;17.30;99.90;;;;;;4987938;28;20092;-86
2022/09/13 03:22:05;;;;;;;41.33;31.47;;;17.40;99.90;;;;;;4988347;28;20047;-85
2022/09/13 03:24:50;;;;;;;35.55;29.95;;;17.30;99.90;;;;;;4983649;28;20664;-86
2022/09/13 03:27:43;;;;;;;36.55;29.65;;;17.30;99.90;;;;;;4990863;28;20034;-85
2022/09/13 03:30:14;;;;;;;39.25;31.13;;;17.30;99.90;;;;;;4987572;28;20034;-85
2022/09/13 03:32:46;;;;;;;;;;;17.30;99.90;;;;;;4973138;28;20046;-85
2022/09/13 03:35:17;;;;;;;37.90;31.00;;;17.30;99.90;;;;;;4985003;28;19917;-85
2022/09/13 03:37:54;;;;;;;38.63;31.95;;;17.30;99.90;;;;;;4974859;28;20376;-85
2022/09/13 03:40:29;;;;;;;41.17;31.30;;;17.50;99.90;;;;;;5006102;28;20490;-85
2022/09/13 03:42:57;;;;;;;37.58;31.13;;;17.40;99.90;;;;;;4990269;28;20046;-85
2022/09/13 03:45:27;;;;;;;41.13;31.48;;;17.40;99.90;;;;;;4977445;28;20394;-85
2022/09/13 03:47:54;;;;;;;34.45;29.83;;;17.40;99.90;;;;;;4987380;28;20045;-85
2022/09/13 03:50:22;;;;;;;35.83;29.73;;;17.40;99.90;;;;;;4976418;28;20042;-85
2022/09/13 03:52:55;;;;;;;36.08;28.42;;;17.50;99.90;;;;;;4987334;28;20042;-85
2022/09/13 03:55:21;;;;;;;36.15;28.08;;;17.50;99.90;;;;;;4975556;28;20443;-85
2022/09/13 03:57:47;;;;;;;37.78;28.30;;;17.50;99.90;;;;;;4975944;28;20050;-85
2022/09/13 04:00:14;;;;;;;34.35;26.48;;;17.50;99.90;;;;;;4976789;28;20050;-86
2022/09/13 04:02:40;;;;;;;32.65;26.95;;;17.50;99.90;;;;;;5003037;28;20078;-86
2022/09/13 04:05:06;;;;;;;34.70;25.42;;;17.50;99.90;;;;;;4981340;28;20070;-85
2022/09/13 04:07:32;;;;;;;34.83;25.45;;;17.50;99.90;;;;;;4988714;28;20046;-86
2022/09/13 04:09:58;;;;;;;32.85;25.17;;;17.50;99.90;;;;;;4980379;28;20046;-85
2022/09/13 04:12:24;;;;;;;34.97;26.13;;;17.50;99.90;;;;;;4989034;28;20042;-85
2022/09/13 04:14:49;;;;;;;29.15;24.17;;;17.60;99.90;;;;;;4988255;28;20065;-85
2022/09/13 04:17:15;;;;;;;30.20;24.50;;;17.60;99.90;;;;;;4990835;28;20118;-85
2022/09/13 04:19:43;;;;;;;28.73;23.83;;;17.60;99.90;;;;;;4981940;28;20483;-85
2022/09/13 04:22:09;;;;;;;30.15;23.98;;;17.60;99.90;;;;;;4969530;28;20050;-86
2022/09/13 04:24:35;;;;;;;30.27;23.05;;;17.60;99.90;;;;;;5003171;28;20404;-86
2022/09/13 04:27:01;;;;;;;31.05;24.23;;;17.60;99.90;;;;;;4988189;28;20089;-85
2022/09/13 04:29:27;;;;;;;27.48;22.88;;;17.70;99.90;;;;;;4973824;28;20039;-85
2022/09/13 04:31:54;;;;;;;29.67;23.10;;;17.60;99.90;;;;;;4985530;28;20053;-86
2022/09/13 04:34:23;;;;;;;26.55;21.83;;;17.60;99.90;;;;;;4986152;28;20430;-85
2022/09/13 04:36:51;;;;;;;28.35;21.92;;;17.70;99.90;;;;;;4988544;28;20046;-85
2022/09/13 04:39:17;;;;;;;26.60;22.20;;;17.70;99.90;;;;;;4984516;28;20093;-86
2022/09/13 04:41:47;;;;;;;30.90;22.52;;;17.70;99.90;;;;;;4970786;28;20042;-86
2022/09/13 04:44:15;;;;;;;26.50;21.20;;;17.70;99.90;;;;;;4975625;28;20054;-85
2022/09/13 04:46:41;;;;;;;28.90;22.55;;;17.70;99.90;;;;;;5000784;28;20129;-85
2022/09/13 04:49:09;;;;;;;30.17;22.77;;;17.70;99.90;;;;;;4986629;28;20038;-86
2022/09/13 04:51:35;;;;;;;28.02;21.92;;;17.70;99.90;;;;;;4988552;28;20054;-86
2022/09/13 04:54:00;;;;;;;29.45;22.23;;;17.70;99.90;;;;;;4977774;28;20031;-85
2022/09/13 04:56:26;;;;;;;27.30;22.13;;;17.80;99.90;;;;;;4984236;28;20041;-86
2022/09/13 04:58:53;;;;;;;26.80;22.60;;;17.80;99.90;;;;;;4975417;28;20550;-85
2022/09/13 05:01:20;;;;;;;29.35;22.80;;;17.80;99.90;;;;;;4981655;28;20048;-85
2022/09/13 05:03:45;;;;;;;28.20;22.60;;;17.80;99.90;;;;;;4995209;28;20124;-88
2022/09/13 05:06:13;;;;;;;25.67;20.85;;;17.80;99.90;;;;;;4994789;28;20129;-86
2022/09/13 05:08:40;;;;;;;25.08;20.10;;;17.80;99.90;;;;;;4992975;28;20091;-86
2022/09/13 05:11:07;;;;;;;23.67;19.98;;;17.80;99.90;;;;;;4982532;28;20071;-86
2022/09/13 05:13:33;;;;;;;26.73;20.08;;;17.80;99.90;;;;;;4991627;28;20042;-87
2022/09/13 05:16:01;;;;;;;24.38;20.67;;;17.80;99.90;;;;;;4989151;28;20390;-87
2022/09/13 05:18:28;;;;;;;30.95;21.95;;;17.80;99.90;;;;;;4987033;28;20376;-87
2022/09/13 05:20:55;;;;;;;29.38;21.30;;;17.90;99.90;;;;;;4987874;28;20100;-87
2022/09/13 05:23:21;;;;;;;25.88;20.60;;;17.90;99.90;;;;;;4987961;28;20042;-87
2022/09/13 05:25:58;;;;;;;28.77;21.65;;;17.90;99.90;;;;;;4983551;28;20093;-88
2022/09/13 05:28:26;;;;;;;26.48;19.98;;;17.90;99.90;;;;;;4987793;28;20239;-86
2022/09/13 05:31:00;;;;;;;25.35;20.20;;;17.90;99.90;;;;;;4988418;28;20078;-87
2022/09/13 05:33:28;;;;;;;27.30;21.33;;;17.90;99.90;;;;;;4986559;28;20038;-89
2022/09/13 05:35:53;;;;;;;27.00;20.45;;;18.00;99.90;;;;;;4968811;28;20045;-87
2022/09/13 05:38:20;;;;;;;28.70;20.88;;;18.00;99.90;;;;;;4970732;28;20035;-88
2022/09/13 05:40:46;;;;;;;23.50;19.75;;;17.90;99.90;;;;;;4971676;28;20042;-87
2022/09/13 05:43:12;;;;;;;26.50;19.75;;;17.90;99.90;;;;;;4989715;28;20057;-87
2022/09/13 05:45:37;;;;;;;23.30;18.83;;;18.10;99.90;;;;;;4987751;28;20101;-88
2022/09/13 05:48:03;;;;;;;24.17;18.73;;;18.00;99.90;;;;;;4988466;28;20054;-87
2022/09/13 05:50:29;;;;;;;24.15;19.00;;;18.00;99.90;;;;;;4989475;28;20483;-87
2022/09/13 05:52:55;;;;;;;22.08;17.90;;;18.00;99.90;;;;;;4988852;28;20552;-88
2022/09/13 05:55:21;;;;;;;23.90;19.05;;;18.00;99.90;;;;;;4990887;28;20030;-87
2022/09/13 05:57:48;;;;;;;22.67;17.30;;;18.00;99.90;;;;;;4990637;28;20035;-87
2022/09/13 06:00:15;;;;;;;20.38;17.23;;;18.00;99.90;;;;;;4992440;28;20445;-87
2022/09/13 06:02:41;;;;;;;22.67;17.33;;;18.00;99.90;;;;;;4991263;28;20113;-87
2022/09/13 06:05:10;;;;;;;21.25;16.77;;;18.00;99.90;;;;;;4992030;28;20125;-87
2022/09/13 06:07:38;;;;;;;24.00;17.90;;;18.00;99.90;;;;;;4991608;28;20041;-87
2022/09/13 06:10:04;;;;;;;20.58;16.77;;;18.00;99.90;;;;;;5004077;28;20360;-87
2022/09/13 06:12:29;;;;;;;19.48;15.77;;;18.00;99.90;;;;;;4978779;28;20050;-87
2022/09/13 06:14:55;;;;;;;22.30;15.00;;;18.00;99.90;;;;;;4979020;28;20026;-87
2022/09/13 06:17:20;;;;;;;17.48;13.27;;;18.00;99.90;;;;;;4992460;28;20124;-87
2022/09/13 06:19:46;;;;;;;15.57;10.68;;;18.00;99.90;;;;;;4989149;28;20042;-87
2022/09/13 06:22:11;;;;;;;15.05;10.45;;;18.00;99.90;;;;;;4987393;28;20491;-87
2022/09/13 06:24:37;;;;;;;13.65;10.32;;;18.10;99.90;;;;;;4989750;28;20541;-86
2022/09/13 06:27:03;;;;;;;13.38;8.85;;;18.00;99.90;;;;;;4988380;28;20467;-87
2022/09/13 06:29:29;;;;;;;11.68;6.78;;;17.90;99.90;;;;;;4993067;28;20383;-87
2022/09/13 06:31:54;;;;;;;12.02;6.70;;;18.00;99.90;;;;;;4989993;28;20042;-86
2022/09/13 06:34:20;;;;;;;13.32;6.70;;;17.90;99.90;;;;;;4991305;28;20155;-86
2022/09/13 06:36:45;;;;;;;11.13;6.10;;;17.90;99.90;;;;;;4987279;28;20461;-86
2022/09/13 06:39:11;;;;;;;9.55;5.60;;;17.90;99.90;;;;;;4994306;28;20097;-87
2022/09/13 06:41:37;;;;;;;8.80;5.70;;;17.90;99.90;;;;;;4985539;28;20077;-87
2022/09/13 06:44:03;;;;;;;8.82;5.25;;;17.90;99.90;;;;;;4976833;28;20057;-87
2022/09/13 06:46:32;;;;;;;10.52;5.18;;;17.90;99.90;;;;;;4991713;28;20030;-87
2022/09/13 06:48:59;;;;;;;10.52;4.90;;;17.80;99.90;;;;;;4982788;28;20414;-86
2022/09/13 06:51:25;;;;;;;10.30;4.93;;;17.80;99.90;;;;;;4978963;28;20046;-86
2022/09/13 06:53:54;;;;;;;10.95;5.03;;;17.80;99.90;;;;;;4971927;28;20110;-86
2022/09/13 06:56:22;;;;;;;9.52;5.00;;;17.80;99.90;;;;;;4983559;28;20105;-87
2022/09/13 06:58:49;;;;;;;8.40;5.03;;;17.80;99.90;;;;;;4986692;28;20045;-87
2022/09/13 07:01:18;;;;;;;13.00;4.93;;;17.80;99.90;;;;;;4989714;28;20047;-87
2022/09/13 07:03:45;;;;;;;10.20;4.78;;;17.80;99.90;;;;;;4992210;28;20038;-87
2022/09/13 07:06:20;;;;;;;9.10;4.97;;;17.80;99.90;;;;;;4989180;28;20042;-87
2022/09/13 07:08:47;;;;;;;9.38;4.47;;;17.80;99.90;;;;;;4989116;28;20060;-87
2022/09/13 07:11:17;;;;;;;8.48;4.50;;;17.80;99.90;;;;;;4972820;28;20082;-86
2022/09/13 07:13:49;;;;;;;9.50;4.93;;;17.80;99.90;;;;;;5005173;28;20040;-86
2022/09/13 07:16:16;;;;;;;8.23;4.80;;;17.80;99.90;;;;;;4990766;28;20100;-87
2022/09/13 07:18:42;;;;;;;10.88;4.90;;;17.90;99.90;;;;;;4993358;28;20114;-87
2022/09/13 07:21:10;;;;;;;9.38;3.83;;;17.90;99.90;;;;;;4989554;28;20466;-87
2022/09/13 07:23:38;;;;;;;9.45;3.83;;;17.90;99.90;;;;;;4989385;28;20042;-88
2022/09/13 07:26:05;;;;;;;8.55;4.28;;;17.90;99.90;;;;;;4989359;28;20085;-87
2022/09/13 07:28:37;;;;;;;7.10;4.30;;;18.00;99.90;;;;;;4983302;28;20096;-87
2022/09/13 07:31:05;;;;;;;7.40;4.40;;;18.00;99.90;;;;;;4989737;28;20053;-87
2022/09/13 07:33:31;;;;;;;8.40;4.00;;;18.00;99.90;;;;;;4982969;28;20129;-88
2022/09/13 07:35:58;;;;;;;9.10;3.90;;;18.00;99.90;;;;;;4986726;28;20503;-91
2022/09/13 07:38:24;;;;;;;9.73;4.00;;;18.10;99.90;;;;;;5001779;28;20117;-89
2022/09/13 07:40:58;;;;;;;8.95;4.18;;;18.10;99.90;;;;;;4975258;28;20109;-89
2022/09/13 07:43:27;;;;;;;8.80;4.05;;;18.20;99.90;;;;;;4972430;28;20053;-89
2022/09/13 07:46:04;;;;;;;8.65;3.55;;;18.10;99.90;;;;;;4986947;28;20042;-90
2022/09/13 07:48:31;;;;;;;9.45;3.75;;;18.20;99.90;;;;;;4994699;28;20039;-90
2022/09/13 07:51:19;;;;;;;11.15;4.10;;;18.20;99.90;;;;;;4983046;28;20110;-90
2022/09/13 07:53:46;;;;;;;9.05;3.58;;;18.20;99.90;;;;;;4985395;28;20069;-92
2022/09/13 07:56:16;;;;;;;8.48;3.38;;;18.30;99.90;;;;;;5006213;28;20118;-91
2022/09/13 07:58:43;;;;;;;8.57;3.50;;;18.40;99.90;;;;;;4989780;28;20049;-88
2022/09/13 08:01:18;;;;;;;9.43;3.78;;;18.50;99.90;;;;;;4989983;28;20518;-90
2022/09/13 08:03:44;;;;;;;9.98;3.10;;;18.60;99.90;;;;;;4978411;28;20058;-90
2022/09/13 08:06:10;;;;;;;8.63;2.60;;;18.70;99.90;;;;;;4977436;28;20042;-91
2022/09/13 08:08:36;;;;;;;7.43;2.60;;;18.70;99.90;;;;;;4983565;28;20062;-90
2022/09/13 08:11:04;;;;;;;6.70;2.20;;;18.80;99.90;;;;;;4984925;28;20046;-91
2022/09/13 08:13:33;;;;;;;7.82;2.08;;;18.90;99.90;;;;;;4984154;28;20113;-90
2022/09/13 08:16:03;;;;;;;5.30;1.90;;;18.90;99.90;;;;;;4989909;28;20038;-89
2022/09/13 08:18:29;;;;;;;7.30;2.10;;;18.90;99.90;;;;;;4991275;28;20034;-88
2022/09/13 08:20:57;;;;;;;7.30;1.92;;;19.00;99.90;;;;;;4990496;28;20042;-89
2022/09/13 08:23:23;;;;;;;6.60;2.20;;;18.90;99.90;;;;;;4973426;28;20065;-89
2022/09/13 08:25:49;;;;;;;7.38;1.88;;;18.90;99.90;;;;;;4989849;28;20039;-89
2022/09/13 08:28:17;;;;;;;8.57;1.88;;;18.90;99.90;;;;;;4989599;28;20042;-90
2022/09/13 08:30:43;;;;;;;7.70;1.92;;;18.90;99.90;;;;;;4988375;28;20410;-88
2022/09/13 08:33:10;;;;;;;6.15;2.05;;;18.90;99.90;;;;;;4972067;28;20065;-90
2022/09/13 08:35:37;;;;;;;6.38;1.60;;;18.80;99.90;;;;;;4990569;28;20100;-89
2022/09/13 08:38:03;;;;;;;7.47;1.55;;;18.80;99.90;;;;;;4990922;28;20046;-91
2022/09/13 08:40:47;;;;;;;6.47;1.80;;;18.80;99.90;;;;;;4990149;28;20088;-91
2022/09/13 08:43:30;;;;;;;9.13;1.67;;;18.80;99.90;;;;;;4990833;28;20046;-90
2022/09/13 08:46:04;;;;;;;6.07;1.50;;;18.90;99.90;;;;;;4989167;28;20038;-91
2022/09/13 08:48:34;;;;;;;4.47;1.45;;;19.00;99.90;;;;;;4989463;28;20039;-89
2022/09/13 08:51:06;;;;;;;4.30;1.30;;;19.10;99.90;;;;;;4973860;28;20041;-90
2022/09/13 08:53:46;;;;;;;4.60;1.50;;;18.90;99.90;;;;;;4989133;28;20459;-90
2022/09/13 08:56:18;;;;;;;5.22;1.42;;;18.80;99.90;;;;;;4991096;28;20117;-91
2022/09/13 08:58:48;;;;;;;8.35;1.40;;;18.70;99.90;;;;;;4989765;28;20130;-90
2022/09/13 09:01:46;;;;;;;6.00;1.70;;;18.60;99.90;;;;;;4989612;28;20054;-89
2022/09/13 09:04:27;;;;;;;6.35;1.67;;;18.50;99.90;;;;;;4981847;28;20101;-91
2022/09/13 09:07:08;;;;;;;6.65;1.50;;;18.50;99.90;;;;;;4989179;28;20474;-90
2022/09/13 09:09:38;;;;;;;;;;;18.60;99.90;;;;;;4988663;28;20429;-89
2022/09/13 09:12:13;;;;;;;4.88;1.20;;;18.60;99.90;;;;;;4988661;28;19930;-92
2022/09/13 09:14:45;;;;;;;5.53;1.25;;;18.80;99.90;;;;;;4973530;28;20479;-89
2022/09/13 09:17:19;;;;;;;3.85;1.20;;;18.90;99.90;;;;;;4989696;28;20042;-88
2022/09/13 09:20:06;;;;;;;5.07;1.20;;;19.00;99.90;;;;;;4989335;28;20046;-88
2022/09/13 09:22:34;;;;;;;3.83;1.20;;;19.00;99.90;;;;;;4988423;28;20153;-90
2022/09/13 09:25:01;;;;;;;5.60;1.58;;;19.00;99.90;;;;;;4990461;28;20047;-90
2022/09/13 09:27:29;;;;;;;4.18;1.30;;;18.90;99.90;;;;;;4989439;28;20113;-88
2022/09/13 09:29:59;;;;;;;5.00;1.30;;;18.80;99.90;;;;;;4990998;28;20038;-88
2022/09/13 09:32:35;;;;;;;5.38;1.27;;;18.80;99.90;;;;;;4994835;28;20042;-86
2022/09/13 09:35:26;;;;;;;2.92;0.93;;;18.80;99.90;;;;;;4992240;28;20081;-89
2022/09/13 09:38:13;;;;;;;;;;;18.90;99.90;;;;;;4975541;28;20050;-87
2022/09/13 09:40:39;;;;;;;4.60;1.10;;;18.90;99.90;;;;;;4994858;28;19918;-89
2022/09/13 09:43:23;;;;;;;3.45;1.00;;;18.90;99.90;;;;;;4976535;28;20124;-91
2022/09/13 09:45:52;;;;;;;4.57;1.08;;;19.00;99.90;;;;;;4995785;28;20038;-91
2022/09/13 09:48:22;;;;;;;5.00;1.08;;;19.10;99.90;;;;;;4993797;28;20486;-91
2022/09/13 09:50:52;;;;;;;7.53;3.50;;;18.90;99.90;;;;;;4992437;28;20043;-90
2022/09/13 09:53:26;;;;;;;5.20;1.50;;;19.00;99.90;;;;;;4989797;28;20038;-88
2022/09/13 09:56:15;;;;;;;6.32;2.20;;;19.10;99.90;;;;;;4975930;28;20041;-86
2022/09/13 09:58:44;;;;;;;4.28;1.77;;;19.00;99.90;;;;;;4993436;28;20091;-89
2022/09/13 10:01:29;;;;;;;4.85;1.58;;;19.10;99.90;;;;;;4978224;28;20081;-90
2022/09/13 10:04:07;;;;;;;4.38;1.20;;;19.10;99.90;;;;;;5009154;28;20054;-90
2022/09/13 10:06:34;;;;;;;4.43;1.20;;;19.10;99.90;;;;;;4989221;28;20386;-91
2022/09/13 10:09:03;;;;;;;3.67;1.10;;;19.20;99.90;;;;;;4989223;28;20077;-89
2022/09/13 10:11:45;;;;;;;6.40;1.38;;;19.30;99.90;;;;;;4989307;28;20038;-89
2022/09/13 10:14:30;;;;;;;8.38;3.47;;;19.40;99.90;;;;;;5007770;28;20054;-89
2022/09/13 10:17:14;;;;;;;6.45;1.15;;;19.50;99.90;;;;;;4995496;28;20034;-94
2022/09/13 10:19:40;;;;;;;4.80;1.00;;;19.50;99.90;;;;;;4998158;28;20482;-88
2022/09/13 10:22:11;;;;;;;5.13;0.90;;;19.50;99.90;;;;;;4988762;28;20104;-90
2022/09/13 10:24:37;;;;;;;2.88;0.90;;;19.50;99.90;;;;;;4995855;28;20046;-90
2022/09/13 10:27:04;;;;;;;5.18;1.30;;;19.40;99.90;;;;;;4990175;28;20090;-88
2022/09/13 10:29:30;;;;;;;4.90;1.42;;;19.50;99.90;;;;;;4996415;28;20049;-91
2022/09/13 10:31:57;;;;;;;3.65;0.98;;;19.50;99.90;;;;;;4987402;28;20479;-90
2022/09/13 10:34:34;;;;;;;4.63;0.93;;;19.60;99.90;;;;;;4991869;28;20618;-88
2022/09/13 10:37:04;;;;;;;4.35;0.98;;;19.80;99.90;;;;;;4990528;28;20038;-90
2022/09/13 10:39:35;;;;;;;5.80;1.10;;;19.90;99.90;;;;;;4989216;28;20426;-90
2022/09/13 10:42:07;;;;;;;5.30;1.10;;;19.90;99.90;;;;;;4977628;28;20042;-89
2022/09/13 10:44:51;;;;;;;6.20;1.00;;;19.90;99.90;;;;;;5007191;28;20043;-92
2022/09/13 10:47:43;;;;;;;4.60;0.85;;;19.80;99.90;;;;;;4989460;28;20456;-89
2022/09/13 10:50:26;;;;;;;5.55;1.42;;;19.70;99.90;;;;;;4982472;28;20046;-88
2022/09/13 10:52:54;;;;;;;5.10;1.20;;;19.70;99.90;;;;;;4975311;28;20150;-88
2022/09/13 10:55:39;;;;;;;4.00;0.90;;;19.80;99.90;;;;;;4987345;28;20065;-90
2022/09/13 10:58:05;;;;;;;6.47;1.13;;;19.70;99.90;;;;;;4997488;28;20134;-89
2022/09/13 11:00:42;;;;;;;4.88;1.70;;;19.70;99.90;;;;;;4989033;28;20046;-90
2022/09/13 11:03:26;;;;;;;4.13;0.90;;;19.90;99.90;;;;;;4987188;28;20057;-90
2022/09/13 11:06:19;;;;;;;3.17;0.80;;;19.80;99.90;;;;;;4988526;28;20407;-89
2022/09/13 11:09:07;;;;;;;3.58;0.90;;;19.80;99.90;;;;;;4988458;28;20076;-90
2022/09/13 11:11:44;;;;;;;4.05;0.80;;;19.70;99.90;;;;;;4996562;28;20244;-90
2022/09/13 11:14:48;;;;;;;4.03;1.08;;;19.70;99.90;;;;;;4988081;28;20598;-90
2022/09/13 11:17:54;;;;;;;4.97;0.93;;;19.70;99.90;;;;;;4985909;28;20034;-89
2022/09/13 11:20:44;;;;;;;5.40;0.93;;;19.80;99.90;;;;;;4989337;28;20046;-89
2022/09/13 11:23:35;;;;;;;4.37;0.90;;;19.90;99.90;;;;;;4986337;28;20052;-90
2022/09/13 11:26:38;;;;;;;5.80;0.88;;;20.00;99.90;;;;;;4988362;28;20054;-90
2022/09/13 11:29:30;;;;;;;3.17;0.80;;;20.00;99.90;;;;;;4984866;28;20419;-91
2022/09/13 11:32:06;;;;;;;5.10;1.10;;;20.00;99.90;;;;;;4984109;28;20058;-92
2022/09/13 11:35:09;;;;;;;4.97;1.13;;;20.00;99.90;;;;;;4989270;28;20121;-89
2022/09/13 11:37:53;;;;;;;5.47;0.93;;;20.00;99.90;;;;;;4990605;28;20046;-87
2022/09/13 11:40:28;;;;;;;5.25;1.10;;;20.00;99.90;;;;;;4982337;28;20054;-89
2022/09/13 11:42:59;;;;;;;6.45;1.55;;;19.90;99.90;;;;;;4984692;28;20031;-88
2022/09/13 11:45:30;;;;;;;4.85;1.02;;;19.90;99.90;;;;;;4987288;28;20097;-88
2022/09/13 11:48:13;;;;;;;7.00;1.00;;;19.90;99.90;;;;;;4988078;28;20046;-86
2022/09/13 11:51:06;;;;;;;7.50;1.00;;;19.90;99.90;;;;;;4986045;28;20030;-89
2022/09/13 11:53:51;;;;;;;5.55;1.10;;;19.90;99.90;;;;;;4991049;28;20393;-89
2022/09/13 11:56:25;;;;;;;5.07;0.93;;;20.00;99.90;;;;;;4999926;28;20042;-88
2022/09/13 11:59:07;;;;;;;5.65;1.08;;;20.00;99.90;;;;;;4978333;28;20480;-87
2022/09/13 12:01:39;;;;;;;5.60;0.85;;;20.00;99.90;;;;;;4988309;28;20491;-88
2022/09/13 12:04:12;;;;;;;5.47;1.00;;;20.00;99.90;;;;;;4990108;28;20431;-88
2022/09/13 12:06:41;;;;;;;7.00;0.98;;;20.00;99.90;;;;;;4991057;28;20391;-89
2022/09/13 12:09:19;;;;;;;6.15;0.93;;;20.10;99.90;;;;;;4990624;28;20092;-87
2022/09/13 12:11:51;;;;;;;6.00;1.10;;;20.10;99.90;;;;;;4970011;28;20050;-89
2022/09/13 12:14:22;;;;;;;6.10;1.02;;;20.20;99.90;;;;;;4988704;28;20502;-88
2022/09/13 12:16:52;;;;;;;4.22;0.77;;;20.20;99.90;;;;;;4987079;28;20047;-89
2022/09/13 12:19:35;;;;;;;7.60;1.20;;;20.20;99.90;;;;;;5009121;28;20043;-89
2022/09/13 12:22:02;;;;;;;8.75;1.38;;;20.20;99.90;;;;;;4985876;28;20464;-88
2022/09/13 12:24:42;;;;;;;4.60;1.20;;;20.30;99.90;;;;;;4996004;28;20042;-88
2022/09/13 12:27:17;;;;;;;7.45;1.30;;;20.30;99.90;;;;;;4982105;28;20051;-89
2022/09/13 12:29:49;;;;;;;6.22;1.20;;;20.20;99.90;;;;;;4988037;28;20372;-88
2022/09/13 12:32:17;;;;;;;6.82;1.20;;;20.20;99.90;;;;;;4975469;28;20047;-88
2022/09/13 12:34:58;;;;;;;5.30;1.10;;;20.20;99.90;;;;;;4987597;28;20070;-89
2022/09/13 12:37:48;;;;;;;5.50;1.10;;;20.20;99.90;;;;;;4988897;28;20046;-88
2022/09/13 12:40:36;;;;;;;6.90;1.33;;;20.30;99.90;;;;;;4989040;28;20046;-87
2022/09/13 12:43:11;;;;;;;6.95;1.10;;;20.30;99.90;;;;;;4989020;28;20081;-86
2022/09/13 12:45:47;;;;;;;8.13;1.63;;;20.30;99.90;;;;;;4989600;28;20096;-89
2022/09/13 12:48:33;;;;;;;4.63;1.25;;;20.50;99.90;;;;;;4988899;28;20458;-88
2022/09/13 12:51:10;;;;;;;7.10;1.23;;;20.50;99.90;;;;;;4989403;28;20050;-88
2022/09/13 12:54:09;;;;;;;6.88;1.20;;;20.50;99.90;;;;;;4989070;28;20038;-87
2022/09/13 12:56:46;;;;;;;8.30;1.60;;;20.60;99.90;;;;;;4990650;28;20048;-87
2022/09/13 12:59:40;;;;;;;7.25;1.60;;;20.60;99.90;;;;;;4988976;28;20456;-86
2022/09/13 13:02:29;;;;;;;9.32;1.58;;;20.60;99.90;;;;;;4975058;28;20081;-87
2022/09/13 13:05:00;;;;;;;5.22;0.90;;;20.60;99.90;;;;;;4993470;28;20128;-88
2022/09/13 13:07:27;;;;;;;7.07;1.30;;;20.60;99.90;;;;;;4994320;28;20042;-87